Time;durP1;ratioP1;P1;durP2;ratioP2;P2;SDS_P1;SDS_P2;PMS_P1;PMS_P2;Temp;Humidity;BMP_temperature;BMP_pressure;BME280_temperature;BME280_humidity;BME280_pressure;Samples;Min_cycle;Max_cycle;Signal;HPM_P1;HPM_P2
2022/12/28 00:01:24;;;;;;;;;13.00;9.00;;;;;6.41;82.96;101345.06;5059810;28;11218;-67
2022/12/28 00:03:51;;;;;;;;;10.00;7.75;;;;;6.35;82.88;101342.16;5065871;28;11074;-68
2022/12/28 00:06:20;;;;;;;;;14.00;12.00;;;;;6.38;82.91;101325.81;5065371;28;11454;-67
2022/12/28 00:08:47;;;;;;;;;10.25;10.25;;;;;6.40;82.78;101322.00;5065890;28;11327;-66
2022/12/28 00:11:17;;;;;;;;;16.00;15.50;;;;;6.45;82.57;101321.53;5062703;28;11136;-67
2022/12/28 00:14:00;;;;;;;;;9.75;9.75;;;;;6.45;82.26;101326.88;5062160;28;12009;-66
2022/12/28 00:16:31;;;;;;;;;8.75;8.75;;;;;6.49;82.37;101312.22;5063312;28;11086;-66
2022/12/28 00:19:00;;;;;;;;;11.50;9.50;;;;;6.51;83.05;101312.88;5067769;28;11160;-66
2022/12/28 00:21:27;;;;;;;;;10.00;10.00;;;;;6.50;83.10;101307.69;5066230;28;11355;-66
2022/12/28 00:23:56;;;;;;;;;10.50;9.00;;;;;6.49;82.66;101292.66;5069102;28;11243;-64
2022/12/28 00:26:25;;;;;;;;;10.75;8.75;;;;;6.54;83.30;101276.97;5065434;28;11147;-66
2022/12/28 00:28:51;;;;;;;;;8.75;8.25;;;;;6.49;82.60;101279.28;5059239;28;11238;-62
2022/12/28 00:31:22;;;;;;;;;8.75;5.25;;;;;6.51;82.64;101269.25;5064725;28;11765;-66
2022/12/28 00:33:48;;;;;;;;;8.25;8.25;;;;;6.56;82.61;101277.63;5066347;28;11133;-67
2022/12/28 00:36:15;;;;;;;;;14.50;10.75;;;;;6.48;82.40;101261.53;5066360;28;11263;-67
2022/12/28 00:38:42;;;;;;;;;14.25;9.50;;;;;6.55;82.50;101267.94;5070384;28;11022;-66
2022/12/28 00:41:09;;;;;;;;;12.00;9.75;;;;;6.59;82.67;101263.94;5063917;28;11043;-67
2022/12/28 00:43:36;;;;;;;;;10.25;10.25;;;;;6.55;82.38;101251.91;5066468;28;11129;-68
2022/12/28 00:46:02;;;;;;;;;12.00;11.50;;;;;6.53;82.19;101248.56;5069301;28;10989;-66
2022/12/28 00:48:29;;;;;;;;;9.00;9.00;;;;;6.58;82.35;101244.41;5070439;28;11154;-67
2022/12/28 00:51:07;;;;;;;;;11.25;11.25;;;;;6.43;83.14;101238.78;5067937;28;11446;-66
2022/12/28 00:53:34;;;;;;;;;11.00;11.00;;;;;6.48;82.83;101235.63;5058218;28;11143;-65
2022/12/28 00:56:09;;;;;;;;;9.00;9.00;;;;;6.54;83.04;101232.34;5058128;28;11152;-69
2022/12/28 00:58:35;;;;;;;;;9.00;8.50;;;;;6.56;82.58;101232.16;5064246;28;11186;-65
2022/12/28 01:01:03;;;;;;;;;11.00;10.75;;;;;6.58;82.66;101231.03;5057718;28;10943;-64
2022/12/28 01:03:30;;;;;;;;;10.50;9.50;;;;;6.58;82.84;101214.97;5060007;28;11496;-65
2022/12/28 01:05:56;;;;;;;;;14.50;12.75;;;;;6.62;82.20;101204.81;5063104;28;11976;-65
2022/12/28 01:08:23;;;;;;;;;14.25;9.00;;;;;6.56;82.91;101200.06;5058995;28;11493;-65
2022/12/28 01:10:49;;;;;;;;;11.00;11.00;;;;;6.55;83.20;101188.53;5052090;28;11152;-66
2022/12/28 01:13:16;;;;;;;;;14.50;12.75;;;;;6.43;83.93;101195.16;5059578;28;11242;-66
2022/12/28 01:15:42;;;;;;;;;14.50;11.75;;;;;6.47;84.30;101193.84;5062033;28;11249;-65
2022/12/28 01:18:09;;;;;;;;;11.50;11.00;;;;;6.49;84.20;101186.50;5062240;28;11147;-65
2022/12/28 01:20:39;;;;;;;;;13.00;13.00;;;;;6.53;84.02;101193.22;5061817;28;11326;-65
2022/12/28 01:23:06;;;;;;;;;12.75;11.75;;;;;6.56;83.74;101190.25;5060101;28;11242;-66
2022/12/28 01:25:33;;;;;;;;;11.25;10.75;;;;;6.58;83.81;101177.53;5056537;28;11339;-66
2022/12/28 01:27:59;;;;;;;;;16.75;14.75;;;;;6.66;84.09;101174.06;5060303;28;11178;-66
2022/12/28 01:30:26;;;;;;;;;15.00;15.00;;;;;6.63;83.80;101163.66;5065109;28;11177;-66
2022/12/28 01:32:52;;;;;;;;;15.00;12.25;;;;;6.67;83.64;101163.19;5056850;28;11221;-66
2022/12/28 01:35:18;;;;;;;;;14.50;12.75;;;;;6.75;83.33;101154.34;5068756;28;10934;-65
2022/12/28 01:37:45;;;;;;;;;15.25;13.25;;;;;6.77;83.28;101154.22;5068881;28;11210;-67
2022/12/28 01:40:14;;;;;;;;;15.75;13.75;;;;;6.78;82.98;101140.66;5058329;28;11139;-66
2022/12/28 01:42:41;;;;;;;;;15.00;13.50;;;;;6.84;82.79;101148.03;5067609;28;11273;-66
2022/12/28 01:45:19;;;;;;;;;13.75;11.25;;;;;6.85;82.85;101136.34;5067767;28;11218;-65
2022/12/28 01:47:50;;;;;;;;;15.50;12.25;;;;;6.91;81.87;101118.78;5062814;28;11096;-66
2022/12/28 01:50:23;;;;;;;;;16.25;14.50;;;;;6.87;81.91;101128.97;5056991;28;11030;-66
2022/12/28 01:52:56;;;;;;;;;14.75;14.75;;;;;6.82;82.08;101141.19;5059224;28;11365;-65
2022/12/28 01:55:27;;;;;;;;;14.50;12.00;;;;;6.85;82.33;101136.34;5059576;28;11949;-65
2022/12/28 01:58:11;;;;;;;;;10.50;10.50;;;;;6.96;82.62;101131.66;5065827;28;10869;-66
2022/12/28 02:00:39;;;;;;;;;9.00;9.00;;;;;6.97;82.53;101118.16;5062256;28;11100;-67
2022/12/28 02:03:19;;;;;;;;;15.25;15.00;;;;;6.99;81.92;101116.13;5069689;28;11151;-67
2022/12/28 02:05:52;;;;;;;;;14.50;12.25;;;;;6.90;82.48;101120.63;5048299;28;11064;-67
2022/12/28 02:08:27;;;;;;;;;17.50;16.00;;;;;6.85;82.28;101100.72;5057303;28;11271;-67
2022/12/28 02:10:53;;;;;;;;;12.50;11.50;;;;;6.95;82.90;101085.34;5063832;28;11462;-67
2022/12/28 02:13:23;;;;;;;;;16.75;14.75;;;;;6.95;81.94;101082.66;5064204;28;11921;-65
2022/12/28 02:15:50;;;;;;;;;15.75;14.75;;;;;6.98;82.10;101093.06;5068211;28;11369;-67
2022/12/28 02:18:19;;;;;;;;;20.25;17.50;;;;;7.00;81.87;101090.19;5066766;28;11108;-66
2022/12/28 02:21:19;;;;;;;;;16.75;15.00;;;;;7.02;81.65;101075.66;5053949;28;11127;-66
2022/12/28 02:24:04;;;;;;;;;13.25;13.00;;;;;7.06;81.34;101087.72;5066649;28;11260;-67
2022/12/28 02:26:36;;;;;;;;;17.00;15.50;;;;;6.98;82.16;101066.28;5072260;28;11076;-67
2022/12/28 02:29:15;;;;;;;;;15.50;15.50;;;;;6.97;81.89;101075.31;5071253;28;11049;-67
2022/12/28 02:32:02;;;;;;;;;12.75;12.25;;;;;7.04;81.86;101072.81;5073110;28;11284;-67
2022/12/28 02:34:46;;;;;;;;;20.50;15.00;;;;;6.93;82.59;101074.81;5065460;28;11211;-66
2022/12/28 02:37:46;;;;;;;;;15.25;13.50;;;;;7.02;82.58;101066.78;5058872;28;11093;-66
2022/12/28 02:40:18;;;;;;;;;13.00;13.00;;;;;7.00;82.60;101061.59;5067278;28;11102;-67
2022/12/28 02:42:45;;;;;;;;;16.50;14.00;;;;;7.09;82.58;101051.72;5072750;28;12235;-67
2022/12/28 02:51:37;;;;;;;;;12.75;12.50;;;;;7.04;82.75;101052.22;5057223;28;11121;-66
2022/12/28 02:57:25;;;;;;;;;18.75;14.50;;;;;7.05;83.41;101056.59;5067776;28;10994;-67
2022/12/28 02:59:59;;;;;;;;;13.25;13.25;;;;;7.18;83.66;101054.25;5077083;28;11010;-66
2022/12/28 03:02:31;;;;;;;;;12.00;12.00;;;;;7.20;83.08;101051.41;5070499;28;11010;-67
2022/12/28 03:08:13;;;;;;;;;18.00;14.75;;;;;7.14;83.58;101039.53;5070259;28;11116;-66
2022/12/28 03:08:20;;;;;;;;;14.50;13.50;;;;;7.14;83.76;101033.34;5063875;28;11261;-67
2022/12/28 03:10:58;;;;;;;;;17.75;17.25;;;;;7.16;84.25;101047.38;5055328;28;11084;-67
2022/12/28 03:13:43;;;;;;;;;17.25;15.25;;;;;7.14;85.19;101044.88;5066738;28;11902;-67
2022/12/28 03:16:20;;;;;;;;;19.00;17.75;;;;;7.16;84.60;101036.69;5070098;28;11179;-66
2022/12/28 03:33:10;;;;;;;;;20.00;17.00;;;;;7.32;85.77;101017.09;5065263;28;11262;-64
2022/12/28 03:35:48;;;;;;;;;17.75;17.00;;;;;7.22;85.92;101017.28;5070291;28;11165;-65
2022/12/28 03:38:26;;;;;;;;;21.25;18.25;;;;;7.27;86.28;101022.13;5071896;28;11483;-65
2022/12/28 03:41:11;;;;;;;;;17.00;15.50;;;;;7.30;86.43;101019.13;5065684;28;11062;-64
2022/12/28 03:43:52;;;;;;;;;16.50;15.00;;;;;7.29;86.64;101009.38;5065735;28;11194;-65
2022/12/28 03:46:30;;;;;;;;;26.75;22.50;;;;;7.29;86.58;101018.28;5062582;28;11034;-67
2022/12/28 03:48:58;;;;;;;;;18.75;18.00;;;;;7.32;86.79;100999.19;5071593;28;11482;-65
2022/12/28 03:51:29;;;;;;;;;18.25;18.25;;;;;7.34;86.51;100997.19;5066104;28;11157;-66
2022/12/28 03:53:58;;;;;;;;;21.00;17.25;;;;;7.31;86.62;101004.72;5059790;28;11210;-66
2022/12/28 03:56:27;;;;;;;;;16.75;16.75;;;;;7.36;86.88;100983.63;5064872;28;11175;-65
2022/12/28 03:58:57;;;;;;;;;16.25;15.50;;;;;7.37;87.19;100975.44;5073248;28;11194;-66
2022/12/28 04:01:32;;;;;;;;;13.75;13.75;;;;;7.46;86.73;100983.44;5069370;28;11295;-66
2022/12/28 04:03:59;;;;;;;;;16.75;14.00;;;;;7.48;86.91;100990.28;5067746;28;11081;-66
2022/12/28 04:06:25;;;;;;;;;16.00;14.50;;;;;7.43;86.91;100976.59;5066489;28;11041;-65
2022/12/28 04:08:52;;;;;;;;;14.50;14.00;;;;;7.53;86.87;100979.91;5049990;28;10924;-67
2022/12/28 04:11:20;;;;;;;;;16.75;16.25;;;;;7.50;87.60;100976.75;5052223;28;11023;-66
2022/12/28 04:13:51;;;;;;;;;12.75;12.00;;;;;7.60;87.89;100964.81;5061377;28;10973;-66
2022/12/28 04:16:18;;;;;;;;;17.50;14.50;;;;;7.66;86.88;100974.03;5063109;28;11201;-65
2022/12/28 04:18:46;;;;;;;;;16.50;12.50;;;;;7.66;87.19;100974.03;5068883;28;11025;-65
2022/12/28 04:21:14;;;;;;;;;15.25;15.25;;;;;7.56;87.76;100962.66;5065617;28;11120;-65
2022/12/28 04:23:42;;;;;;;;;14.00;12.50;;;;;7.63;87.59;100955.59;5069490;28;10954;-67
2022/12/28 04:26:29;;;;;;;;;15.75;12.00;;;;;7.67;87.51;100963.13;5061879;28;10941;-66
2022/12/28 04:29:00;;;;;;;;;11.25;11.25;;;;;7.63;87.39;100958.28;5070969;28;10870;-66
2022/12/28 04:31:53;;;;;;;;;14.50;13.50;;;;;7.67;88.56;100968.47;5065880;28;10852;-66
2022/12/28 04:34:20;;;;;;;;;14.75;12.00;;;;;7.68;87.59;100958.59;5067988;28;10948;-65
2022/12/28 04:36:57;;;;;;;;;11.50;11.00;;;;;7.66;88.36;100964.13;5062091;28;10944;-67
2022/12/28 04:39:23;;;;;;;;;11.00;11.00;;;;;7.66;88.24;100957.94;5068024;28;10841;-67
2022/12/28 04:41:49;;;;;;;;;7.00;6.75;;;;;7.68;88.47;100935.31;5065393;28;10756;-67
2022/12/28 04:44:16;;;;;;;;;11.25;11.25;;;;;7.77;88.33;100937.97;5068148;28;10697;-67
2022/12/28 04:46:42;;;;;;;;;9.00;9.00;;;;;7.68;88.43;100943.34;5068323;28;10970;-68
2022/12/28 04:49:09;;;;;;;;;14.75;11.75;;;;;7.67;88.67;100932.81;5067931;28;10925;-67
2022/12/28 04:51:35;;;;;;;;;12.25;12.00;;;;;7.67;88.90;100933.66;5070392;28;10794;-68
2022/12/28 04:54:02;;;;;;;;;16.75;15.00;;;;;7.65;88.74;100932.16;5068174;28;10997;-66
2022/12/28 04:56:28;;;;;;;;;15.00;13.75;;;;;7.61;88.85;100930.81;5065515;28;11014;-68
2022/12/28 04:58:58;;;;;;;;;13.25;13.25;;;;;7.60;88.92;100930.00;5064562;28;10963;-67
2022/12/28 05:01:24;;;;;;;;;14.50;12.75;;;;;7.61;89.76;100920.94;5070288;28;10847;-67
2022/12/28 05:03:53;;;;;;;;;12.25;11.00;;;;;7.71;89.41;100934.16;5070132;28;10905;-66
2022/12/28 05:06:24;;;;;;;;;8.00;8.00;;;;;7.82;89.34;100930.22;5070319;28;10906;-68
2022/12/28 05:08:50;;;;;;;;;9.00;8.00;;;;;7.75;88.84;100932.78;5059624;28;10802;-66
2022/12/28 05:11:22;;;;;;;;;13.75;9.50;;;;;7.79;89.05;100926.06;5066755;28;10831;-66
2022/12/28 05:13:49;;;;;;;;;12.50;11.75;;;;;7.83;89.14;100926.56;5069686;28;10776;-67
2022/12/28 05:16:18;;;;;;;;;14.50;13.25;;;;;7.80;88.66;100932.28;5069447;28;10861;-67
2022/12/28 05:18:44;;;;;;;;;12.50;10.25;;;;;7.87;88.63;100923.34;5049898;28;10827;-65
2022/12/28 05:21:14;;;;;;;;;10.00;8.25;;;;;7.91;88.42;100907.78;5065416;28;10818;-67
2022/12/28 05:23:41;;;;;;;;;10.00;8.00;;;;;7.94;88.49;100918.16;5059317;28;10899;-67
2022/12/28 05:26:11;;;;;;;;;11.25;10.00;;;;;7.94;88.89;100926.19;5069946;28;10694;-66
2022/12/28 05:28:38;;;;;;;;;10.00;10.00;;;;;7.90;88.60;100912.31;5070210;28;10692;-67
2022/12/28 05:31:07;;;;;;;;;11.25;9.00;;;;;8.00;88.72;100917.44;5069967;28;10679;-66
2022/12/28 05:33:35;;;;;;;;;12.75;10.75;;;;;7.98;88.99;100927.50;5070318;28;10494;-67
2022/12/28 05:36:06;;;;;;;;;13.75;9.50;;;;;8.01;89.34;100926.31;5063402;28;11360;-67
2022/12/28 05:38:33;;;;;;;;;6.75;6.75;;;;;8.01;89.56;100928.97;5050251;28;10674;-67
2022/12/28 05:41:08;;;;;;;;;7.00;7.00;;;;;8.03;88.60;100924.28;5057790;28;11360;-66
2022/12/28 05:43:34;;;;;;;;;11.25;9.50;;;;;8.05;88.83;100923.09;5069904;28;10695;-66
2022/12/28 05:46:07;;;;;;;;;8.25;7.00;;;;;8.03;89.05;100921.63;5069737;28;10681;-67
2022/12/28 05:48:35;;;;;;;;;5.75;5.75;;;;;8.03;89.02;100926.97;5069920;28;11355;-66
2022/12/28 05:51:04;;;;;;;;;5.75;4.50;;;;;8.00;89.28;100919.28;5069959;28;10469;-67
2022/12/28 05:53:32;;;;;;;;;8.50;8.25;;;;;8.01;89.72;100919.09;5063976;28;10357;-68
2022/12/28 05:56:03;;;;;;;;;7.75;6.25;;;;;8.07;89.29;100917.56;5062308;28;10502;-67
2022/12/28 05:58:32;;;;;;;;;5.50;5.50;;;;;8.10;88.77;100917.19;5073984;28;10697;-67
2022/12/28 06:01:08;;;;;;;;;8.00;6.75;;;;;8.11;88.89;100919.72;5072615;28;10476;-67
2022/12/28 06:03:35;;;;;;;;;5.75;5.75;;;;;8.06;88.97;100914.06;5070984;28;10571;-67
2022/12/28 06:06:16;;;;;;;;;4.75;4.75;;;;;8.13;88.97;100903.44;5071193;28;10575;-67
2022/12/28 06:08:43;;;;;;;;;8.25;6.50;;;;;8.14;89.14;100913.16;5068265;28;10503;-67
2022/12/28 06:11:12;;;;;;;;;8.00;5.75;;;;;8.15;88.72;100910.31;5064709;28;10437;-68
2022/12/28 06:13:39;;;;;;;;;6.00;6.00;;;;;8.15;89.06;100909.47;5071256;28;10509;-69
2022/12/28 06:16:06;;;;;;;;;3.00;3.00;;;;;8.15;88.48;100901.44;5072106;28;10461;-66
2022/12/28 06:18:33;;;;;;;;;7.50;7.50;;;;;8.20;88.74;100909.78;5069484;28;10506;-69
2022/12/28 06:21:10;;;;;;;;;11.00;6.00;;;;;8.26;88.91;100911.72;5068019;28;10506;-68
2022/12/28 06:23:37;;;;;;;;;5.00;5.00;;;;;8.23;88.86;100912.13;5067828;28;11307;-68
2022/12/28 06:26:07;;;;;;;;;6.00;5.75;;;;;8.21;88.77;100902.56;5070019;28;10524;-66
2022/12/28 06:28:36;;;;;;;;;8.25;8.25;;;;;8.21;88.96;100908.75;5061451;28;10722;-69
2022/12/28 06:31:23;;;;;;;;;2.50;2.50;;;;;8.26;88.52;100910.91;5059037;28;10543;-67
2022/12/28 06:33:53;;;;;;;;;8.25;8.25;;;;;8.23;88.64;100912.13;5066637;28;10373;-68
2022/12/28 06:36:22;;;;;;;;;5.25;5.25;;;;;8.28;89.26;100898.16;5064698;28;10569;-67
2022/12/28 06:38:50;;;;;;;;;5.75;5.75;;;;;8.30;89.02;100910.38;5073332;28;10491;-68
2022/12/28 06:41:18;;;;;;;;;5.75;4.75;;;;;8.39;88.64;100905.84;5066825;28;10530;-67
2022/12/28 06:43:46;;;;;;;;;7.25;7.25;;;;;8.36;88.69;100907.00;5063532;28;10610;-67
2022/12/28 06:46:14;;;;;;;;;7.00;6.75;;;;;8.38;88.96;100904.16;5067039;28;10565;-66
2022/12/28 06:48:41;;;;;;;;;6.75;6.75;;;;;8.37;88.52;100907.84;5056061;28;11313;-66
2022/12/28 06:51:19;;;;;;;;;5.50;5.50;;;;;8.22;89.21;100894.34;5069948;28;10369;-65
2022/12/28 06:53:48;;;;;;;;;5.75;5.75;;;;;8.30;90.34;100890.75;5072750;28;10595;-66
2022/12/28 06:56:23;;;;;;;;;8.00;8.00;;;;;8.30;89.28;100872.81;5070670;28;10486;-66
2022/12/28 06:58:50;;;;;;;;;6.00;5.00;;;;;8.28;89.58;100876.72;5072903;28;10360;-68
2022/12/28 07:01:32;;;;;;;;;5.50;5.50;;;;;8.30;90.08;100877.34;5066217;28;10609;-67
2022/12/28 07:04:00;;;;;;;;;6.00;6.00;;;;;8.28;89.69;100880.22;5052751;28;10507;-67
2022/12/28 07:06:28;;;;;;;;;5.00;5.00;;;;;8.30;89.93;100886.22;5052512;28;10358;-67
2022/12/28 07:09:04;;;;;;;;;5.25;4.25;;;;;8.35;90.45;100894.59;5057845;28;10433;-68
2022/12/28 07:11:31;;;;;;;;;8.25;8.25;;;;;8.30;90.50;100869.31;5063534;28;10524;-68
2022/12/28 07:13:58;;;;;;;;;9.25;6.25;;;;;8.34;90.60;100882.19;5072391;28;11397;-65
2022/12/28 07:16:26;;;;;;;;;6.50;6.00;;;;;8.32;90.43;100875.34;5072148;28;10567;-65
2022/12/28 07:18:53;;;;;;;;;5.75;5.00;;;;;8.32;90.26;100881.53;5062202;28;10368;-66
2022/12/28 07:21:28;;;;;;;;;5.75;5.75;;;;;8.36;90.73;100887.38;5066981;28;10583;-65
2022/12/28 07:23:55;;;;;;;;;7.75;7.75;;;;;8.36;90.73;100882.03;5062622;28;11308;-66
2022/12/28 07:26:26;;;;;;;;;9.50;9.50;;;;;8.32;90.99;100894.94;5067175;28;10698;-66
2022/12/28 07:28:54;;;;;;;;;7.00;7.00;;;;;8.33;90.52;100887.72;5072261;28;11506;-66
2022/12/28 07:31:24;;;;;;;;;6.00;6.00;;;;;8.35;90.88;100899.97;5067339;28;10540;-67
2022/12/28 07:33:52;;;;;;;;;6.25;6.25;;;;;8.35;90.81;100896.44;5072027;28;10585;-68
2022/12/28 07:36:19;;;;;;;;;12.00;9.50;;;;;8.38;90.73;100901.47;5067463;28;10863;-67
2022/12/28 07:38:46;;;;;;;;;9.50;9.00;;;;;8.39;91.08;100893.25;5059339;28;11360;-65
2022/12/28 07:41:15;;;;;;;;;10.75;10.25;;;;;8.38;91.24;100898.78;5066049;28;11345;-70
2022/12/28 07:43:42;;;;;;;;;12.00;8.50;;;;;8.36;91.50;100909.69;5065843;28;11372;-67
2022/12/28 07:46:14;;;;;;;;;11.25;11.25;;;;;8.37;91.04;100905.16;5062863;28;10523;-67
2022/12/28 07:48:42;;;;;;;;;10.50;10.00;;;;;8.46;91.25;100898.72;5062315;28;10696;-67
2022/12/28 07:51:23;;;;;;;;;13.50;10.75;;;;;8.43;91.08;100888.38;5062359;28;10639;-67
2022/12/28 07:53:50;;;;;;;;;12.00;10.25;;;;;8.42;91.09;100882.16;5065511;28;10709;-67
2022/12/28 07:56:18;;;;;;;;;12.75;12.75;;;;;8.49;90.75;100890.31;5067002;28;10767;-66
2022/12/28 07:58:52;;;;;;;;;12.00;11.75;;;;;8.52;90.63;100889.97;5070250;28;10594;-67
2022/12/28 08:01:21;;;;;;;;;8.00;8.00;;;;;8.47;90.81;100886.16;5062207;28;10693;-67
2022/12/28 08:03:55;;;;;;;;;8.75;8.00;;;;;8.54;90.44;100881.75;5064801;28;10514;-67
2022/12/28 08:06:23;;;;;;;;;10.00;10.00;;;;;8.50;91.12;100888.47;5062302;28;10485;-65
2022/12/28 08:08:58;;;;;;;;;9.50;8.75;;;;;8.48;90.53;100886.00;5071565;28;10622;-65
2022/12/28 08:11:28;;;;;;;;;8.25;8.25;;;;;8.55;90.49;100886.94;5064409;28;10618;-66
2022/12/28 08:13:55;;;;;;;;;11.25;10.75;;;;;8.54;90.82;100876.38;5069300;28;10600;-68
2022/12/28 08:16:23;;;;;;;;;9.00;8.00;;;;;8.56;90.88;100885.09;5068841;28;11228;-68
2022/12/28 08:18:50;;;;;;;;;6.00;6.00;;;;;8.54;90.58;100879.88;5069585;28;10571;-67
2022/12/28 08:21:23;;;;;;;;;10.25;5.75;;;;;8.52;90.46;100876.56;5060750;28;10548;-66
2022/12/28 08:23:50;;;;;;;;;5.75;5.25;;;;;8.58;91.19;100883.88;5071027;28;10387;-67
2022/12/28 08:26:23;;;;;;;;;8.00;7.25;;;;;8.50;90.95;100870.53;5062746;28;10517;-66
2022/12/28 08:28:55;;;;;;;;;6.75;6.75;;;;;8.59;90.82;100876.69;5055012;28;10412;-67
2022/12/28 08:31:27;;;;;;;;;7.00;7.00;;;;;8.54;91.02;100869.16;5070048;28;10508;-67
2022/12/28 08:33:54;;;;;;;;;5.50;5.50;;;;;8.59;90.81;100868.63;5070030;28;10359;-66
2022/12/28 08:36:21;;;;;;;;;9.00;9.00;;;;;8.56;90.78;100877.03;5067547;28;11354;-66
2022/12/28 08:38:49;;;;;;;;;7.00;7.00;;;;;8.49;91.52;100876.91;5069647;28;10508;-66
2022/12/28 08:41:21;;;;;;;;;9.00;8.00;;;;;8.60;91.58;100878.34;5059030;28;10576;-66
2022/12/28 08:43:48;;;;;;;;;7.75;7.75;;;;;8.68;91.32;100877.44;5062794;28;10483;-67
2022/12/28 08:46:17;;;;;;;;;11.75;10.50;;;;;8.63;90.37;100880.69;5070215;28;10529;-68
2022/12/28 08:48:45;;;;;;;;;8.00;8.00;;;;;8.70;90.34;100875.41;5065721;28;10759;-68
2022/12/28 08:51:13;;;;;;;;;12.50;12.50;;;;;8.68;90.09;100878.28;5066412;28;10523;-66
2022/12/28 08:53:40;;;;;;;;;13.50;13.50;;;;;8.60;90.06;100881.88;5063409;28;10754;-69
2022/12/28 08:56:11;;;;;;;;;13.00;11.00;;;;;8.63;90.53;100888.72;5070311;28;10643;-67
2022/12/28 08:58:39;;;;;;;;;12.00;12.00;;;;;8.60;91.06;100881.03;5066057;28;11432;-64
2022/12/28 09:01:17;;;;;;;;;19.25;17.75;;;;;8.60;91.05;100886.41;5067656;28;10655;-65
2022/12/28 09:03:46;;;;;;;;;16.75;12.25;;;;;8.61;90.31;100891.56;5057652;28;10775;-64
2022/12/28 09:06:16;;;;;;;;;14.50;13.00;;;;;8.68;90.35;100883.66;5070121;28;10631;-63
2022/12/28 09:08:43;;;;;;;;;16.50;12.75;;;;;8.69;90.09;100881.78;5063277;28;10683;-64
2022/12/28 09:11:29;;;;;;;;;13.25;12.25;;;;;8.68;90.48;100880.13;5070137;28;11434;-64
2022/12/28 09:13:56;;;;;;;;;16.25;16.25;;;;;8.69;90.18;100879.94;5068290;28;10523;-65
2022/12/28 09:16:26;;;;;;;;;15.25;14.25;;;;;8.72;90.21;100882.28;5068426;28;10913;-66
2022/12/28 09:18:58;;;;;;;;;18.75;18.00;;;;;8.78;90.11;100875.34;5064941;28;11610;-65
2022/12/28 09:21:27;;;;;;;;;16.00;16.00;;;;;8.69;89.85;100874.56;5070148;28;10761;-65
2022/12/28 09:23:55;;;;;;;;;23.25;19.50;;;;;8.65;90.71;100884.81;5070095;28;10920;-65
2022/12/28 09:26:24;;;;;;;;;13.75;13.00;;;;;8.63;90.57;100883.38;5069835;28;11002;-65
2022/12/28 09:28:55;;;;;;;;;17.00;14.75;;;;;8.68;90.71;100875.59;5070145;28;10675;-65
2022/12/28 09:31:24;;;;;;;;;18.50;16.00;;;;;8.69;89.91;100887.16;5068518;28;10672;-67
2022/12/28 09:34:00;;;;;;;;;21.25;18.50;;;;;8.74;90.42;100876.72;5074221;28;10705;-68
2022/12/28 09:36:47;;;;;;;;;15.00;14.50;;;;;8.79;89.94;100882.34;5069118;28;10667;-67
2022/12/28 09:39:16;;;;;;;;;19.00;14.00;;;;;8.87;90.07;100876.91;5074106;28;10693;-67
2022/12/28 09:42:05;;;;;;;;;16.50;16.50;;;;;8.88;89.51;100876.75;5062126;28;10783;-66
2022/12/28 09:44:47;;;;;;;;;19.00;16.25;;;;;8.76;89.44;100886.25;5071249;28;10904;-67
2022/12/28 09:47:50;;;;;;;;;21.25;17.25;;;;;8.70;89.48;100888.81;5069188;28;10961;-66
2022/12/28 09:50:23;;;;;;;;;17.75;16.00;;;;;8.79;90.00;100880.53;5070313;28;10790;-66
2022/12/28 09:53:05;;;;;;;;;16.25;15.50;;;;;8.88;89.09;100884.81;5062713;28;10787;-65
2022/12/28 09:55:35;;;;;;;;;16.25;16.25;;;;;8.89;88.96;100882.94;5069722;28;10690;-67
2022/12/28 09:58:03;;;;;;;;;22.25;21.25;;;;;8.88;89.47;100871.38;5073967;28;10700;-67
2022/12/28 10:00:38;;;;;;;;;21.00;18.50;;;;;8.87;89.43;100885.81;5071527;28;10865;-68
2022/12/28 10:03:15;;;;;;;;;19.00;16.25;;;;;8.87;89.17;100868.88;5072863;28;10614;-68
2022/12/28 10:05:42;;;;;;;;;14.25;14.25;;;;;8.85;89.31;100866.38;5067530;28;10737;-68
2022/12/28 10:08:13;;;;;;;;;10.00;10.00;;;;;8.99;90.42;100864.72;5069055;28;10707;-63
2022/12/28 10:10:41;;;;;;;;;11.00;9.50;;;;;9.40;92.62;100857.06;5060605;28;10533;-66
2022/12/28 10:13:20;;;;;;;;;10.00;8.75;;;;;9.68;91.23;100869.81;5067967;28;10522;-66
2022/12/28 10:16:17;;;;;;;;;14.75;14.25;;;;;9.51;88.48;100858.44;5073032;28;10482;-63
2022/12/28 10:18:45;;;;;;;;;12.00;11.50;;;;;9.38;87.52;100861.78;5065366;28;10607;-65
2022/12/28 10:21:11;;;;;;;;;10.25;9.25;;;;;9.30;86.97;100864.56;5073359;28;10456;-65
2022/12/28 10:23:41;;;;;;;;;13.50;12.00;;;;;9.24;87.60;100859.13;5073145;28;10369;-66
2022/12/28 10:26:28;;;;;;;;;15.50;13.00;;;;;9.11;87.20;100851.69;5073593;28;10462;-66
2022/12/28 10:28:59;;;;;;;;;12.25;12.25;;;;;9.05;87.96;100860.47;5072807;28;10674;-65
2022/12/28 10:31:39;;;;;;;;;9.50;9.50;;;;;8.95;88.06;100863.41;5071427;28;10531;-66
2022/12/28 10:34:19;;;;;;;;;11.50;11.50;;;;;8.92;88.92;100847.69;5065333;28;10646;-65
2022/12/28 10:36:46;;;;;;;;;7.75;7.75;;;;;9.00;88.45;100855.66;5069903;28;10644;-66
2022/12/28 10:39:28;;;;;;;;;10.00;9.25;;;;;8.95;88.55;100851.84;5063988;28;10431;-66
2022/12/28 10:41:59;;;;;;;;;13.00;12.75;;;;;8.89;88.60;100848.88;5074071;28;10445;-66
2022/12/28 10:44:30;;;;;;;;;8.50;8.50;;;;;8.86;88.80;100849.25;5070797;28;10581;-66
2022/12/28 10:47:29;;;;;;;;;10.50;6.50;;;;;8.80;88.93;100846.47;5077313;28;10561;-67
2022/12/28 10:49:55;;;;;;;;;9.00;9.00;;;;;8.83;89.16;100838.91;5072407;28;10420;-66
2022/12/28 10:52:42;;;;;;;;;11.00;9.00;;;;;8.90;88.79;100841.66;5064230;28;10315;-64
2022/12/28 10:55:30;;;;;;;;;12.50;9.00;;;;;8.77;88.56;100828.88;5075254;28;10804;-65
2022/12/28 10:58:21;;;;;;;;;11.00;6.00;;;;;8.85;88.34;100831.47;5062438;28;10445;-65
2022/12/28 11:01:06;;;;;;;;;7.50;6.50;;;;;8.89;88.65;100830.09;5062595;28;10366;-66
2022/12/28 11:03:36;;;;;;;;;6.00;6.00;;;;;8.87;88.41;100832.16;5065346;28;10123;-68
2022/12/28 11:06:14;;;;;;;;;9.75;9.75;;;;;8.86;88.66;100814.34;5060038;28;10361;-68
2022/12/28 11:08:42;;;;;;;;;11.50;8.75;;;;;8.90;88.64;100821.00;5062491;28;10347;-67
2022/12/28 11:11:20;;;;;;;;;9.25;6.50;;;;;8.91;88.43;100806.59;5069316;28;10508;-68
2022/12/28 11:13:57;;;;;;;;;8.00;7.75;;;;;8.89;88.75;100814.00;5071889;28;10455;-68
2022/12/28 11:16:23;;;;;;;;;8.50;8.50;;;;;8.88;89.30;100801.59;5072162;28;10497;-67
2022/12/28 11:18:50;;;;;;;;;4.00;3.00;;;;;8.84;89.32;100796.78;5072202;28;10218;-70
2022/12/28 11:21:20;;;;;;;;;8.75;6.50;;;;;8.85;89.09;100796.59;5071974;28;10413;-68
2022/12/28 11:23:49;;;;;;;;;5.50;5.50;;;;;8.88;89.27;100785.47;5071976;28;10341;-68
2022/12/28 11:26:16;;;;;;;;;6.25;5.00;;;;;8.82;88.83;100796.13;5071639;28;10321;-68
2022/12/28 11:28:47;;;;;;;;;5.75;5.75;;;;;8.89;89.51;100784.47;5071855;28;10319;-69
2022/12/28 11:31:32;;;;;;;;;5.00;5.00;;;;;8.82;89.46;100786.22;5071982;28;10187;-67
2022/12/28 11:34:04;;;;;;;;;3.00;3.00;;;;;8.88;89.46;100784.66;5071969;28;10996;-65
2022/12/28 11:36:36;;;;;;;;;5.00;4.50;;;;;8.85;89.24;100775.09;5071779;28;10213;-66
2022/12/28 11:39:22;;;;;;;;;3.75;3.25;;;;;8.85;89.17;100785.00;5071995;28;10282;-68
2022/12/28 11:41:51;;;;;;;;;6.00;6.00;;;;;8.80;89.15;100779.38;5071386;28;10313;-67
2022/12/28 11:44:37;;;;;;;;;6.00;5.25;;;;;8.73;89.89;100776.59;5071216;28;10366;-68
2022/12/28 11:47:20;;;;;;;;;4.00;4.00;;;;;8.77;89.56;100767.16;5071558;28;10555;-68
2022/12/28 11:49:53;;;;;;;;;5.25;5.25;;;;;8.82;89.90;100772.78;5071707;28;10295;-68
2022/12/28 11:52:22;;;;;;;;;5.75;5.75;;;;;8.79;90.18;100775.88;5071305;28;10406;-67
2022/12/28 11:54:58;;;;;;;;;8.75;6.25;;;;;8.87;89.48;100758.81;5070592;28;10372;-67
2022/12/28 11:57:39;;;;;;;;;5.50;5.50;;;;;8.83;89.92;100770.94;5071667;28;10276;-68
2022/12/28 12:00:18;;;;;;;;;7.50;5.00;;;;;8.73;89.96;100759.66;5071557;28;10467;-67
2022/12/28 12:02:59;;;;;;;;;4.75;4.75;;;;;8.72;89.94;100756.13;5071277;28;10341;-67
2022/12/28 12:05:35;;;;;;;;;5.50;5.00;;;;;8.72;90.24;100763.34;5070967;28;10440;-68
2022/12/28 12:08:22;;;;;;;;;4.25;4.25;;;;;8.73;89.92;100765.84;5071206;28;10537;-68
2022/12/28 12:11:14;;;;;;;;;4.50;4.50;;;;;8.76;90.03;100756.59;5050112;28;10407;-67